首页
METAR-TAF:

METAR-TAF

机场 :

Copper Harbor, 密歇根州, 美国

纬度: 47-28-01N, 经度: 087-52-30W, 海拔: 190米

当前天气观测

该预报发布于30分钟前的02:51 UTC
风速8节,风向西转西南,在南转西南西之间变化
温度 12°C
湿度 50%
气压 1020 hPa

METAR: KP59 010251Z AUTO 24008KT 210V270 12/02 A3013 RMK AO1 SLP203 T01170022 55002

时间: 23:21 (03:21 UTC)


TAF: 丢失

超过4000个机场的气象观测和天气预报(METAR&TAF报告)。

可查询的气象台以黄色和红色小点在地图上表示。

将鼠标移到小点上方,可查看气象台名称。

然后点击查看天气观测和预报。

如需切换地图:点击带黑十字的绿色按钮放大地图;点击带横线的绿色按钮缩小地图;或者点击绿色箭头查看邻近地区的地图。


METAR-TAF: